Time;durP1;ratioP1;P1;durP2;ratioP2;P2;SDS_P1;SDS_P2;PMS_P1;PMS_P2;Temp;Humidity;BMP_temperature;BMP_pressure;BME280_temperature;BME280_humidity;BME280_pressure;Samples;Min_cycle;Max_cycle;Signal;HPM_P1;HPM_P2
2022/03/23 00:00:43;;;;;;;14.75;10.13;;;4.90;59.50;;;;;;5054940;28;20519;-80
2022/03/23 00:03:10;;;;;;;16.88;10.57;;;4.90;59.60;;;;;;5084123;28;20383;-80
2022/03/23 00:05:39;;;;;;;20.00;10.18;;;4.90;59.50;;;;;;5067835;28;20037;-80
2022/03/23 00:08:05;;;;;;;17.42;10.25;;;5.00;59.00;;;;;;5051105;28;20491;-80
2022/03/23 00:10:31;;;;;;;17.15;9.40;;;4.90;59.20;;;;;;5054007;28;20029;-80
2022/03/23 00:12:58;;;;;;;15.13;10.32;;;4.90;59.80;;;;;;5073534;28;20023;-80
2022/03/23 00:15:23;;;;;;;22.13;10.32;;;4.90;59.80;;;;;;5055899;28;20119;-80
2022/03/23 00:17:50;;;;;;;17.27;10.85;;;4.80;59.90;;;;;;5081717;28;20059;-80
2022/03/23 00:20:16;;;;;;;25.15;12.57;;;4.80;60.30;;;;;;5067673;28;20021;-80
2022/03/23 00:22:41;;;;;;;19.75;11.45;;;4.70;60.70;;;;;;5069894;28;20433;-80
2022/03/23 00:25:08;;;;;;;17.92;10.93;;;4.70;60.50;;;;;;5082617;28;20035;-80
2022/03/23 00:27:34;;;;;;;17.35;11.02;;;4.60;60.60;;;;;;5055694;28;20043;-80
2022/03/23 00:30:00;;;;;;;15.80;10.35;;;4.60;60.80;;;;;;5059031;28;20029;-80
2022/03/23 00:32:26;;;;;;;16.15;10.98;;;4.60;61.20;;;;;;5081727;28;20056;-80
2022/03/23 00:34:51;;;;;;;17.08;10.18;;;4.50;61.60;;;;;;5052313;28;20586;-80
2022/03/23 00:37:17;;;;;;;17.33;10.20;;;4.60;63.80;;;;;;5059949;28;20044;-79
2022/03/23 00:39:43;;;;;;;17.98;10.32;;;4.50;63.60;;;;;;5069382;28;20039;-78
2022/03/23 00:42:08;;;;;;;16.90;9.93;;;4.40;63.60;;;;;;5065337;28;20021;-78
2022/03/23 00:44:34;;;;;;;19.98;10.88;;;4.40;63.40;;;;;;5071173;28;20025;-78
2022/03/23 00:47:00;;;;;;;15.30;9.85;;;4.40;63.00;;;;;;5046334;28;20021;-78
2022/03/23 00:49:25;;;;;;;17.75;10.85;;;4.30;63.10;;;;;;5062318;28;20561;-78
2022/03/23 00:51:53;;;;;;;16.85;10.23;;;4.30;64.40;;;;;;5051797;28;20041;-78
2022/03/23 00:54:19;;;;;;;17.35;10.35;;;4.20;64.40;;;;;;5049562;28;20032;-78
2022/03/23 00:56:45;;;;;;;17.02;10.38;;;4.20;63.80;;;;;;5059271;28;20475;-78
2022/03/23 00:59:11;;;;;;;15.80;10.50;;;4.10;64.60;;;;;;5062793;28;20044;-78
2022/03/23 01:01:38;;;;;;;17.08;10.50;;;4.10;64.10;;;;;;5082192;28;20085;-79
2022/03/23 01:04:03;;;;;;;14.93;9.80;;;4.10;64.00;;;;;;5062226;28;20139;-78
2022/03/23 01:06:29;;;;;;;15.77;10.02;;;4.10;64.80;;;;;;5059695;28;20107;-79
2022/03/23 01:08:54;;;;;;;19.38;9.70;;;4.00;64.70;;;;;;5049124;28;20049;-79
2022/03/23 01:11:20;;;;;;;17.90;10.38;;;4.00;63.50;;;;;;5060754;28;20032;-79
2022/03/23 01:13:45;;;;;;;17.10;10.27;;;4.10;65.20;;;;;;5081600;28;20028;-79
2022/03/23 01:16:12;;;;;;;17.90;11.23;;;4.10;65.00;;;;;;5085141;28;20055;-79
2022/03/23 01:18:37;;;;;;;23.88;12.13;;;4.00;66.10;;;;;;5077375;28;20538;-79
2022/03/23 01:21:03;;;;;;;19.25;12.02;;;3.90;67.10;;;;;;5047523;28;20025;-79
2022/03/23 01:23:28;;;;;;;19.15;11.57;;;3.90;68.80;;;;;;5073037;28;20032;-79
2022/03/23 01:25:54;;;;;;;21.45;12.48;;;3.80;70.10;;;;;;5050886;28;20039;-79
2022/03/23 01:28:19;;;;;;;20.50;13.15;;;3.80;70.40;;;;;;5047899;28;20075;-79
2022/03/23 01:30:45;;;;;;;21.48;12.85;;;3.70;70.60;;;;;;5052402;28;20025;-79
2022/03/23 01:33:11;;;;;;;21.35;13.70;;;3.60;69.90;;;;;;5045738;28;20385;-79
2022/03/23 01:35:36;;;;;;;24.08;13.25;;;3.50;70.00;;;;;;5070349;28;20032;-79
2022/03/23 01:38:02;;;;;;;22.13;13.15;;;3.40;70.20;;;;;;5071529;28;20036;-78
2022/03/23 01:40:28;;;;;;;20.83;12.90;;;3.40;70.40;;;;;;5052198;28;20118;-79
2022/03/23 01:42:53;;;;;;;23.88;13.88;;;3.40;71.00;;;;;;5063786;28;20028;-79
2022/03/23 01:45:19;;;;;;;26.65;14.27;;;3.40;71.40;;;;;;5047800;28;20524;-79
2022/03/23 01:47:45;;;;;;;21.30;13.50;;;3.30;71.50;;;;;;5069700;28;20032;-78
2022/03/23 01:50:11;;;;;;;20.17;13.32;;;3.30;71.20;;;;;;5053405;28;20032;-78
2022/03/23 01:52:38;;;;;;;22.13;14.07;;;3.20;71.20;;;;;;5053983;28;20027;-78
2022/03/23 01:55:09;;;;;;;22.17;14.00;;;3.20;71.00;;;;;;5050839;28;20032;-78
2022/03/23 01:57:38;;;;;;;20.85;14.00;;;3.10;71.10;;;;;;5058975;28;20480;-78
2022/03/23 02:00:06;;;;;;;24.20;14.82;;;3.10;71.20;;;;;;5051919;28;20411;-78
2022/03/23 02:02:31;;;;;;;24.63;14.55;;;3.10;71.40;;;;;;5068443;28;20032;-78
2022/03/23 02:04:57;;;;;;;22.15;15.05;;;3.10;71.50;;;;;;5055661;28;20089;-78
2022/03/23 02:07:24;;;;;;;23.67;14.50;;;3.10;71.60;;;;;;5070181;28;20036;-79
2022/03/23 02:09:50;;;;;;;20.02;13.85;;;3.10;71.40;;;;;;5050837;28;20075;-79
2022/03/23 02:12:16;;;;;;;22.13;13.95;;;3.10;71.40;;;;;;5069933;28;20025;-79
2022/03/23 02:14:41;;;;;;;24.73;13.45;;;3.00;71.50;;;;;;5077237;28;20024;-79
2022/03/23 02:17:07;;;;;;;21.05;13.68;;;3.00;71.30;;;;;;5058813;28;20384;-79
2022/03/23 02:19:33;;;;;;;20.30;13.57;;;2.90;71.60;;;;;;5051663;28;20033;-79
2022/03/23 02:21:58;;;;;;;20.75;13.60;;;2.90;71.60;;;;;;5068057;28;20471;-79
2022/03/23 02:24:26;;;;;;;28.00;13.75;;;3.00;71.60;;;;;;5053892;28;20158;-79
2022/03/23 02:26:54;;;;;;;22.95;14.85;;;3.00;71.20;;;;;;5088810;28;20035;-79
2022/03/23 02:29:20;;;;;;;19.95;13.15;;;3.00;71.20;;;;;;5072502;28;20041;-79
2022/03/23 02:31:46;;;;;;;23.30;13.75;;;3.00;71.00;;;;;;5060774;28;20024;-79
2022/03/23 02:34:12;;;;;;;21.50;13.85;;;3.00;71.00;;;;;;5068171;28;20088;-79
2022/03/23 02:36:38;;;;;;;22.27;14.45;;;3.00;71.20;;;;;;5064259;28;20072;-79
2022/03/23 02:39:04;;;;;;;21.05;14.35;;;3.00;71.10;;;;;;5045746;28;20108;-78
2022/03/23 02:41:30;;;;;;;23.25;14.93;;;3.00;70.90;;;;;;5083425;28;20147;-78
2022/03/23 02:43:56;;;;;;;21.77;14.77;;;3.00;71.30;;;;;;5063485;28;20028;-78
2022/03/23 02:46:22;;;;;;;22.15;14.27;;;3.00;71.10;;;;;;5053916;28;20150;-78
2022/03/23 02:48:51;;;;;;;19.65;13.68;;;2.90;71.40;;;;;;5069199;28;20040;-78
2022/03/23 02:51:17;;;;;;;21.30;13.63;;;2.90;71.60;;;;;;5057992;28;20090;-78
2022/03/23 03:02:27;;;;;;;26.30;15.30;;;2.80;71.50;;;;;;5059282;28;20460;-79
2022/03/23 03:04:53;;;;;;;24.58;15.45;;;2.80;72.10;;;;;;5071663;28;20028;-79
2022/03/23 03:07:18;;;;;;;26.85;15.02;;;2.80;72.30;;;;;;5059857;28;20028;-79
2022/03/23 03:09:44;;;;;;;23.60;15.30;;;2.70;72.70;;;;;;5044660;28;20021;-79
2022/03/23 03:12:11;;;;;;;25.27;15.70;;;2.70;73.00;;;;;;5057807;28;20078;-79
2022/03/23 03:14:38;;;;;;;25.33;15.27;;;2.60;72.70;;;;;;5055462;28;20094;-79
2022/03/23 03:17:05;;;;;;;26.02;15.02;;;2.60;72.70;;;;;;5071894;28;20463;-79
2022/03/23 03:19:31;;;;;;;22.65;14.82;;;2.60;72.50;;;;;;5052084;28;20036;-79
2022/03/23 03:21:57;;;;;;;27.20;14.70;;;2.60;72.60;;;;;;5069073;28;20476;-79
2022/03/23 03:24:22;;;;;;;23.73;14.50;;;2.50;72.40;;;;;;5052463;28;20032;-79
2022/03/23 03:26:49;;;;;;;24.02;13.75;;;2.60;72.70;;;;;;5052952;28;20032;-78
2022/03/23 03:29:14;;;;;;;23.88;14.70;;;2.60;72.70;;;;;;5054368;28;20024;-78
2022/03/23 03:31:40;;;;;;;25.67;14.00;;;2.50;72.90;;;;;;5059690;28;20081;-78
2022/03/23 03:34:05;;;;;;;22.88;13.38;;;2.40;72.80;;;;;;5055522;28;20132;-78
2022/03/23 03:36:31;;;;;;;26.05;14.13;;;2.40;72.40;;;;;;5053808;28;20186;-78
2022/03/23 03:38:57;;;;;;;20.75;12.73;;;2.30;72.30;;;;;;5072979;28;20054;-78
2022/03/23 03:41:23;;;;;;;21.08;13.98;;;2.30;71.70;;;;;;5054357;28;20410;-78
2022/03/23 03:43:49;;;;;;;25.50;14.07;;;2.30;71.30;;;;;;5089626;28;20039;-78
2022/03/23 03:46:15;;;;;;;22.50;12.98;;;2.20;71.10;;;;;;5045491;28;20287;-78
2022/03/23 03:48:41;;;;;;;21.15;12.45;;;2.20;71.20;;;;;;5056951;28;20408;-78
2022/03/23 03:51:08;;;;;;;23.38;13.32;;;2.20;71.20;;;;;;5071505;28;20513;-78
2022/03/23 03:53:34;;;;;;;21.55;13.50;;;2.20;71.20;;;;;;5071641;28;20405;-78
2022/03/23 03:56:00;;;;;;;25.35;14.50;;;2.10;71.20;;;;;;5052692;28;20115;-78
2022/03/23 03:58:25;;;;;;;22.02;13.52;;;2.10;71.30;;;;;;5067534;28;20020;-78
2022/03/23 04:00:51;;;;;;;21.13;14.02;;;2.10;71.50;;;;;;5068410;28;20111;-78
2022/03/23 04:03:17;;;;;;;21.67;13.70;;;2.10;71.90;;;;;;5055292;28;20067;-78
2022/03/23 04:05:42;;;;;;;22.10;13.68;;;2.10;72.30;;;;;;5049960;28;20037;-78
2022/03/23 04:08:08;;;;;;;22.90;13.70;;;2.10;72.80;;;;;;5064110;28;20028;-78
2022/03/23 04:10:35;;;;;;;21.13;13.45;;;2.10;72.90;;;;;;5052949;28;20037;-78
2022/03/23 04:13:00;;;;;;;22.92;14.30;;;2.10;73.00;;;;;;5054123;28;20032;-78
2022/03/23 04:15:26;;;;;;;20.08;13.15;;;2.10;72.90;;;;;;5067623;28;20016;-78
2022/03/23 04:17:55;;;;;;;23.35;13.63;;;2.00;73.10;;;;;;5055513;28;20024;-78
2022/03/23 04:20:22;;;;;;;20.33;12.82;;;2.10;73.40;;;;;;5065811;28;20098;-78
2022/03/23 04:22:48;;;;;;;21.45;13.88;;;2.10;73.20;;;;;;5052013;28;20168;-78
2022/03/23 04:25:15;;;;;;;22.77;13.07;;;2.10;73.50;;;;;;5063421;28;20393;-78
2022/03/23 04:27:49;;;;;;;19.65;12.85;;;2.10;73.30;;;;;;5073632;28;20036;-78
2022/03/23 04:30:17;;;;;;;20.30;12.73;;;2.10;73.10;;;;;;5053502;28;20033;-78
2022/03/23 04:32:47;;;;;;;24.33;13.50;;;2.10;72.70;;;;;;5053071;28;20078;-78
2022/03/23 04:35:13;;;;;;;24.65;14.10;;;2.10;72.70;;;;;;5065206;28;20476;-78
2022/03/23 04:37:40;;;;;;;22.55;13.70;;;2.00;72.50;;;;;;5060699;28;20392;-78
2022/03/23 04:40:07;;;;;;;21.52;13.10;;;2.00;72.40;;;;;;5050584;28;20024;-78
2022/03/23 04:42:34;;;;;;;21.75;12.73;;;2.00;72.60;;;;;;5060984;28;20036;-78
2022/03/23 04:44:59;;;;;;;21.08;14.15;;;2.00;72.80;;;;;;5082520;28;20020;-78
2022/03/23 04:47:25;;;;;;;22.67;13.38;;;2.00;72.80;;;;;;5078345;28;20032;-78
2022/03/23 04:49:50;;;;;;;23.58;13.90;;;1.90;72.50;;;;;;5065875;28;20063;-78
2022/03/23 04:52:16;;;;;;;29.17;14.30;;;1.90;72.40;;;;;;5045417;28;20130;-78
2022/03/23 04:54:43;;;;;;;22.25;14.00;;;1.80;73.00;;;;;;5060524;28;20417;-78
2022/03/23 04:57:09;;;;;;;24.13;14.52;;;1.90;73.60;;;;;;5069043;28;20016;-78
2022/03/23 04:59:34;;;;;;;24.55;14.93;;;1.90;73.80;;;;;;5051735;28;20499;-78
2022/03/23 05:02:00;;;;;;;26.40;14.60;;;1.90;74.00;;;;;;5069339;28;20032;-78
2022/03/23 05:04:25;;;;;;;23.75;14.52;;;1.90;74.50;;;;;;5053769;28;20036;-78
2022/03/23 05:06:51;;;;;;;26.30;15.30;;;1.90;74.70;;;;;;5052073;28;20028;-78
2022/03/23 05:09:16;;;;;;;26.27;14.38;;;1.80;75.00;;;;;;5068504;28;20502;-78
2022/03/23 05:11:42;;;;;;;24.58;14.90;;;1.80;75.40;;;;;;5066430;28;20043;-79
2022/03/23 05:14:07;;;;;;;22.48;14.18;;;1.90;75.50;;;;;;5060933;28;20023;-78
2022/03/23 05:16:33;;;;;;;24.67;14.43;;;1.80;75.30;;;;;;5044484;28;20321;-78
2022/03/23 05:18:59;;;;;;;24.60;15.35;;;1.80;75.60;;;;;;5051801;28;20021;-78
2022/03/23 05:21:24;;;;;;;24.85;15.02;;;1.80;76.00;;;;;;5068754;28;23804;-78
2022/03/23 05:23:49;;;;;;;25.85;14.65;;;1.80;76.10;;;;;;5047918;28;20053;-78
2022/03/23 05:26:15;;;;;;;26.95;14.35;;;1.70;75.90;;;;;;5050015;28;20036;-78
2022/03/23 05:28:41;;;;;;;23.40;14.43;;;1.80;76.00;;;;;;5077692;28;20032;-78
2022/03/23 05:31:06;;;;;;;25.23;14.55;;;1.70;75.80;;;;;;5048710;28;20074;-79
2022/03/23 05:33:32;;;;;;;24.48;15.40;;;1.70;75.50;;;;;;5054932;28;20640;-80
2022/03/23 05:35:58;;;;;;;25.20;15.25;;;1.60;75.40;;;;;;5046147;28;20571;-79
2022/03/23 05:38:23;;;;;;;24.50;15.63;;;1.70;75.60;;;;;;5066976;28;20503;-79
2022/03/23 05:40:49;;;;;;;25.45;14.93;;;1.70;75.90;;;;;;5063095;28;20028;-80
2022/03/23 05:43:14;;;;;;;26.70;15.65;;;1.70;75.90;;;;;;5084798;28;21628;-79
2022/03/23 05:45:40;;;;;;;30.27;16.58;;;1.70;75.80;;;;;;5072427;28;20058;-79
2022/03/23 05:48:05;;;;;;;22.02;15.27;;;1.80;76.20;;;;;;5074166;28;20028;-79
2022/03/23 05:50:33;;;;;;;27.63;17.35;;;1.80;76.00;;;;;;5060167;28;20070;-79
2022/03/23 05:52:58;;;;;;;24.25;15.02;;;1.80;75.80;;;;;;5043802;28;20033;-78
2022/03/23 05:55:24;;;;;;;32.85;15.57;;;1.90;75.70;;;;;;5061261;28;20029;-78
2022/03/23 05:57:49;;;;;;;24.13;15.93;;;1.90;75.50;;;;;;5054470;28;20411;-78
2022/03/23 06:00:15;;;;;;;25.05;16.13;;;1.90;75.70;;;;;;5070565;28;20037;-79
2022/03/23 06:02:41;;;;;;;26.88;16.98;;;2.00;75.80;;;;;;5084829;28;20072;-79
2022/03/23 06:05:08;;;;;;;25.20;15.48;;;2.00;75.60;;;;;;5072833;28;20031;-79
2022/03/23 06:07:36;;;;;;;24.95;17.20;;;2.10;75.50;;;;;;5071661;28;20090;-78
2022/03/23 06:10:03;;;;;;;27.65;16.92;;;2.10;75.30;;;;;;5053288;28;20020;-78
2022/03/23 06:12:30;;;;;;;27.92;16.48;;;2.20;75.20;;;;;;5073976;28;20028;-79
2022/03/23 06:14:55;;;;;;;30.17;16.55;;;2.30;75.10;;;;;;5053154;28;20025;-80
2022/03/23 06:17:21;;;;;;;26.58;16.38;;;2.30;74.80;;;;;;5055679;28;20488;-78
2022/03/23 06:19:46;;;;;;;25.38;16.55;;;2.40;74.50;;;;;;5050855;28;20473;-78
2022/03/23 06:22:11;;;;;;;25.98;16.20;;;2.50;74.10;;;;;;5055114;28;20024;-78
2022/03/23 06:24:37;;;;;;;23.90;15.65;;;2.60;73.60;;;;;;5075636;28;20040;-78
2022/03/23 06:27:03;;;;;;;24.45;15.50;;;2.70;73.20;;;;;;5052353;28;20082;-78
2022/03/23 06:29:28;;;;;;;28.23;16.85;;;2.80;72.70;;;;;;5062391;28;20199;-78
2022/03/23 06:31:54;;;;;;;26.33;17.20;;;3.00;73.30;;;;;;5073670;28;20036;-78
2022/03/23 06:34:19;;;;;;;33.30;18.27;;;3.10;73.60;;;;;;5079623;28;20373;-78
2022/03/23 06:36:45;;;;;;;25.15;16.00;;;3.20;73.70;;;;;;5062300;28;20071;-78
2022/03/23 06:39:10;;;;;;;28.13;16.13;;;3.30;73.00;;;;;;5053906;28;20066;-78
2022/03/23 06:41:36;;;;;;;27.27;16.35;;;3.40;72.60;;;;;;5056652;28;20063;-78
2022/03/23 06:44:02;;;;;;;25.88;16.05;;;3.60;72.20;;;;;;5083533;28;20036;-78
2022/03/23 06:46:27;;;;;;;25.60;16.55;;;3.70;71.90;;;;;;5065002;28;20024;-78
2022/03/23 06:48:53;;;;;;;27.58;17.27;;;3.90;73.00;;;;;;5063830;28;20055;-79
2022/03/23 06:51:19;;;;;;;26.52;15.90;;;4.20;72.60;;;;;;5070401;28;20024;-78
2022/03/23 06:53:44;;;;;;;23.05;14.80;;;4.50;71.30;;;;;;5056552;28;20411;-79
2022/03/23 06:56:10;;;;;;;22.55;14.25;;;4.80;69.30;;;;;;5059388;28;20032;-79
2022/03/23 06:58:36;;;;;;;22.35;14.65;;;5.10;67.70;;;;;;5086037;28;20040;-79
2022/03/23 07:01:02;;;;;;;24.75;14.95;;;5.40;65.50;;;;;;5056875;28;20145;-79
2022/03/23 07:03:28;;;;;;;23.35;15.30;;;5.70;65.90;;;;;;5083011;28;20503;-79
2022/03/23 07:05:54;;;;;;;21.27;14.18;;;6.00;66.00;;;;;;5051376;28;22378;-79
2022/03/23 07:11:05;;;;;;;21.73;14.00;;;6.60;61.40;;;;;;5061817;28;20036;-79
2022/03/23 07:13:31;;;;;;;21.92;15.00;;;6.90;61.90;;;;;;5076422;28;20032;-79
2022/03/23 07:15:56;;;;;;;21.27;13.45;;;7.10;60.90;;;;;;5076149;28;20458;-79
2022/03/23 07:18:22;;;;;;;22.10;14.70;;;7.30;59.30;;;;;;5062819;28;20024;-80
2022/03/23 07:20:47;;;;;;;21.70;13.98;;;7.50;57.20;;;;;;5056796;28;20399;-80
2022/03/23 07:23:13;;;;;;;20.27;13.98;;;7.80;57.60;;;;;;5086447;28;20032;-80
2022/03/23 07:25:38;;;;;;;23.00;14.35;;;8.00;53.90;;;;;;5075418;28;20395;-80
2022/03/23 07:28:04;;;;;;;23.00;15.10;;;8.20;55.00;;;;;;5073939;28;20037;-80
2022/03/23 07:30:33;;;;;;;25.48;14.40;;;8.30;55.00;;;;;;5065250;28;20039;-80
2022/03/23 07:33:00;;;;;;;24.23;14.57;;;8.50;55.50;;;;;;5083103;28;20028;-80
2022/03/23 07:35:25;;;;;;;23.38;14.57;;;8.70;52.70;;;;;;5061081;28;20024;-79
2022/03/23 07:37:51;;;;;;;21.85;14.30;;;8.80;52.60;;;;;;5084764;28;20056;-79
2022/03/23 07:40:16;;;;;;;23.48;13.35;;;9.10;52.50;;;;;;5056301;28;20529;-80
2022/03/23 07:42:42;;;;;;;20.48;13.27;;;9.40;48.60;;;;;;5055462;28;20033;-80
2022/03/23 07:45:08;;;;;;;23.50;14.55;;;9.60;49.70;;;;;;5054233;28;20044;-80
2022/03/23 07:47:33;;;;;;;20.25;13.40;;;9.70;49.20;;;;;;5086558;28;20058;-80
2022/03/23 07:49:59;;;;;;;21.52;13.63;;;10.00;47.20;;;;;;5056013;28;20392;-80
2022/03/23 07:52:24;;;;;;;20.95;13.50;;;10.00;46.70;;;;;;5052592;28;20605;-80
2022/03/23 07:54:51;;;;;;;24.30;12.70;;;10.10;47.60;;;;;;5063571;28;20127;-81
2022/03/23 07:57:17;;;;;;;22.15;13.98;;;10.30;47.40;;;;;;5066722;28;20017;-80
2022/03/23 07:59:43;;;;;;;21.98;13.48;;;10.50;48.80;;;;;;5067186;28;20040;-80
2022/03/23 08:02:09;;;;;;;22.38;12.73;;;10.70;45.20;;;;;;5067482;28;20029;-81
2022/03/23 08:04:34;;;;;;;18.70;12.00;;;10.80;47.50;;;;;;5074617;28;20525;-80
2022/03/23 08:07:01;;;;;;;20.20;13.35;;;11.00;43.20;;;;;;5080211;28;20376;-81
2022/03/23 08:09:26;;;;;;;16.45;12.77;;;11.10;42.40;;;;;;5051797;28;20032;-79
2022/03/23 08:11:52;;;;;;;18.80;12.77;;;11.30;44.10;;;;;;5072906;28;20040;-79
2022/03/23 08:14:17;;;;;;;18.13;11.52;;;11.40;41.70;;;;;;5062176;28;20077;-79
2022/03/23 08:16:43;;;;;;;21.10;12.63;;;11.60;39.90;;;;;;5049432;28;20036;-79
2022/03/23 08:19:09;;;;;;;17.67;11.90;;;12.00;40.60;;;;;;5058441;28;20478;-79
2022/03/23 08:21:34;;;;;;;17.58;12.18;;;12.10;38.90;;;;;;5068040;28;20025;-79
2022/03/23 08:24:00;;;;;;;20.55;12.05;;;12.60;39.80;;;;;;5059307;28;20036;-79
2022/03/23 08:26:26;;;;;;;15.50;11.77;;;12.70;38.90;;;;;;5058094;28;20395;-79
2022/03/23 08:28:52;;;;;;;17.40;11.98;;;12.90;37.50;;;;;;5052939;28;20091;-79
2022/03/23 08:31:17;;;;;;;20.95;11.90;;;13.20;41.50;;;;;;5053214;28;20052;-79
2022/03/23 08:33:43;;;;;;;17.15;12.88;;;13.60;37.70;;;;;;5058893;28;20423;-79
2022/03/23 08:36:09;;;;;;;16.55;11.45;;;13.90;38.70;;;;;;5051068;28;20468;-79
2022/03/23 08:38:35;;;;;;;18.45;12.75;;;14.20;36.40;;;;;;5055296;28;20032;-79
2022/03/23 08:41:02;;;;;;;19.23;12.20;;;13.90;36.00;;;;;;5047009;28;20449;-79
2022/03/23 08:43:27;;;;;;;14.93;10.27;;;14.60;36.00;;;;;;5073959;28;20020;-80
2022/03/23 08:45:53;;;;;;;14.57;10.48;;;14.60;34.50;;;;;;5054474;28;20227;-80
2022/03/23 08:48:18;;;;;;;16.00;10.45;;;14.80;34.80;;;;;;5060340;28;20029;-79
2022/03/23 08:50:48;;;;;;;14.75;10.52;;;14.80;33.50;;;;;;5062362;28;20082;-79
2022/03/23 08:53:14;;;;;;;16.63;10.50;;;14.80;32.90;;;;;;5066864;28;20111;-80
2022/03/23 08:55:40;;;;;;;15.13;9.88;;;15.00;32.20;;;;;;5052112;28;20081;-80
2022/03/23 08:58:06;;;;;;;12.05;10.02;;;15.10;31.40;;;;;;5055645;28;20471;-80
2022/03/23 09:00:33;;;;;;;15.43;10.32;;;15.50;33.40;;;;;;5076793;28;20033;-80
2022/03/23 09:02:59;;;;;;;17.88;10.20;;;15.40;33.10;;;;;;5060265;28;20021;-80
2022/03/23 09:05:25;;;;;;;15.15;10.40;;;15.40;32.00;;;;;;5051908;28;20025;-80
2022/03/23 09:07:50;;;;;;;13.13;9.73;;;15.60;32.30;;;;;;5055150;28;20459;-80
2022/03/23 09:10:19;;;;;;;15.18;10.00;;;16.00;31.20;;;;;;5045363;28;20036;-80
2022/03/23 09:12:46;;;;;;;14.07;10.52;;;16.00;30.50;;;;;;5069982;28;20017;-80
2022/03/23 09:15:13;;;;;;;13.27;9.77;;;16.30;31.30;;;;;;5062894;28;20029;-80
2022/03/23 09:17:40;;;;;;;13.55;9.68;;;16.40;29.70;;;;;;5049850;28;20392;-79
2022/03/23 09:20:07;;;;;;;16.50;10.27;;;16.00;29.30;;;;;;5048932;28;20496;-79
2022/03/23 09:22:36;;;;;;;14.02;9.57;;;16.50;30.10;;;;;;5059085;28;20039;-79
2022/03/23 09:25:06;;;;;;;12.95;9.95;;;16.90;28.70;;;;;;5065363;28;20032;-80
2022/03/23 09:27:43;;;;;;;12.70;9.32;;;16.50;29.50;;;;;;5070878;28;20028;-80
2022/03/23 09:30:11;;;;;;;13.95;10.27;;;16.40;27.70;;;;;;5071763;28;20357;-78
2022/03/23 09:32:38;;;;;;;13.32;9.70;;;16.90;28.60;;;;;;5048882;28;20480;-78
2022/03/23 09:35:04;;;;;;;16.45;9.70;;;17.00;27.60;;;;;;5060779;28;20067;-77
2022/03/23 09:37:47;;;;;;;13.57;9.50;;;17.20;30.20;;;;;;5068396;28;20040;-77
2022/03/23 09:40:20;;;;;;;14.73;9.07;;;17.20;28.10;;;;;;5050050;28;20044;-79
2022/03/23 09:42:46;;;;;;;18.05;9.57;;;16.60;27.10;;;;;;5077240;28;20093;-80
2022/03/23 09:45:59;;;;;;;13.80;9.40;;;16.70;27.60;;;;;;5084312;28;20024;-79
2022/03/23 09:48:02;;;;;;;13.10;9.50;;;17.00;27.80;;;;;;5059862;28;20044;-80
2022/03/23 09:50:32;;;;;;;15.15;9.57;;;17.10;27.10;;;;;;5067062;28;20035;-79
2022/03/23 09:52:58;;;;;;;13.07;9.60;;;17.40;27.50;;;;;;5057596;28;20468;-79
2022/03/23 09:55:24;;;;;;;17.10;9.05;;;17.00;27.30;;;;;;5065065;28;20020;-79
2022/03/23 09:57:54;;;;;;;12.65;9.52;;;17.20;27.80;;;;;;5066951;28;20093;-79
2022/03/23 10:00:20;;;;;;;12.55;8.80;;;17.30;27.90;;;;;;5047393;28;20464;-79
2022/03/23 10:03:12;;;;;;;14.20;9.40;;;17.60;28.00;;;;;;5070931;28;20073;-79
2022/03/23 10:06:17;;;;;;;14.20;8.70;;;17.50;26.30;;;;;;5014998;28;20044;-80
2022/03/23 10:09:05;;;;;;;12.93;8.75;;;17.50;26.80;;;;;;5065456;28;20033;-79
2022/03/23 10:12:08;;;;;;;13.88;9.40;;;17.30;25.90;;;;;;5072291;28;20020;-79
2022/03/23 10:15:01;;;;;;;12.23;8.57;;;17.50;26.80;;;;;;5063618;28;20021;-79
2022/03/23 10:18:05;;;;;;;12.50;8.90;;;17.50;26.70;;;;;;5066824;28;20044;-79
2022/03/23 10:20:30;;;;;;;13.57;8.43;;;18.00;26.30;;;;;;5046893;28;20081;-79
2022/03/23 10:22:56;;;;;;;11.75;8.27;;;18.00;28.10;;;;;;5085642;28;20420;-80
2022/03/23 10:25:26;;;;;;;12.65;8.15;;;18.10;26.10;;;;;;5085240;28;20029;-79
2022/03/23 10:27:54;;;;;;;12.63;8.10;;;18.10;28.10;;;;;;5076375;28;20036;-79
2022/03/23 10:30:37;;;;;;;12.98;8.73;;;18.00;27.60;;;;;;5057816;28;20081;-79
2022/03/23 10:33:14;;;;;;;16.80;8.60;;;18.10;27.10;;;;;;5056537;28;20035;-79
2022/03/23 10:35:40;;;;;;;13.75;8.10;;;18.30;29.60;;;;;;5079887;28;20045;-79
2022/03/23 10:38:19;;;;;;;12.40;8.07;;;18.00;26.10;;;;;;5077152;28;20050;-79
2022/03/23 10:40:47;;;;;;;11.75;7.50;;;17.80;27.00;;;;;;5069048;28;20024;-79
2022/03/23 10:43:19;;;;;;;15.88;7.70;;;18.10;28.20;;;;;;5056118;28;20123;-79
2022/03/23 10:45:45;;;;;;;15.25;8.30;;;18.40;27.40;;;;;;5066587;28;20485;-79
2022/03/23 10:48:15;;;;;;;14.80;7.75;;;18.40;28.60;;;;;;5071309;28;20117;-79
2022/03/23 10:50:58;;;;;;;14.37;7.67;;;18.40;28.60;;;;;;5057276;28;20041;-79
2022/03/23 10:53:40;;;;;;;17.52;8.23;;;18.20;28.90;;;;;;5048762;28;20368;-79
2022/03/23 10:56:06;;;;;;;13.65;7.90;;;18.50;27.40;;;;;;5088912;28;20028;-79
2022/03/23 10:58:34;;;;;;;13.82;7.47;;;18.80;28.30;;;;;;5078207;28;20029;-79
2022/03/23 11:01:05;;;;;;;13.43;7.65;;;18.80;27.90;;;;;;5059378;28;20116;-79
2022/03/23 11:03:41;;;;;;;15.95;9.02;;;18.50;27.50;;;;;;5056570;28;20119;-80
2022/03/23 11:06:09;;;;;;;13.25;8.40;;;18.50;28.60;;;;;;5067802;28;20409;-80
2022/03/23 11:08:35;;;;;;;12.13;6.85;;;18.50;29.00;;;;;;5057782;28;20028;-80
2022/03/23 11:16:44;;;;;;;14.07;7.57;;;19.10;27.40;;;;;;5083318;28;20028;-80
2022/03/23 11:19:10;;;;;;;14.82;6.53;;;19.10;27.40;;;;;;5052350;28;20641;-80
2022/03/23 11:22:12;;;;;;;16.48;7.13;;;19.50;28.80;;;;;;5050742;28;20025;-80
2022/03/23 11:24:47;;;;;;;14.20;6.80;;;19.30;27.10;;;;;;5050393;28;20036;-80
2022/03/23 11:27:18;;;;;;;13.35;7.18;;;19.00;27.00;;;;;;5056268;28;20062;-80
2022/03/23 11:29:44;;;;;;;;;;;18.90;27.90;;;;;;5084204;28;20074;-80
2022/03/23 11:32:18;;;;;;;14.18;6.75;;;19.40;28.10;;;;;;5074489;28;20013;-80
2022/03/23 11:34:48;;;;;;;19.80;8.63;;;19.30;28.40;;;;;;5075766;28;20023;-80
2022/03/23 11:37:16;;;;;;;15.43;7.60;;;19.50;28.50;;;;;;5054465;28;20045;-79
2022/03/23 11:39:42;;;;;;;15.25;7.45;;;19.60;28.80;;;;;;5058191;28;20453;-80
2022/03/23 11:42:08;;;;;;;14.55;8.27;;;19.60;27.50;;;;;;5058041;28;20021;-80
2022/03/23 11:44:37;;;;;;;17.13;8.57;;;19.90;28.60;;;;;;5053585;28;20124;-80
2022/03/23 11:47:28;;;;;;;13.88;8.38;;;19.70;28.50;;;;;;5055914;28;20038;-80
2022/03/23 11:50:10;;;;;;;;;;;19.30;27.40;;;;;;5053959;28;20021;-80
2022/03/23 11:53:11;;;;;;;14.23;8.43;;;19.40;27.60;;;;;;5051969;28;20248;-80
2022/03/23 11:55:48;;;;;;;17.77;9.68;;;20.00;28.10;;;;;;5017472;28;20512;-80
2022/03/23 11:58:16;;;;;;;17.67;9.07;;;19.50;29.80;;;;;;5053575;28;20036;-80
2022/03/23 12:00:50;;;;;;;17.67;9.38;;;20.50;29.40;;;;;;5059274;28;20033;-80
2022/03/23 12:03:41;;;;;;;19.50;9.40;;;20.60;28.30;;;;;;5062437;28;20021;-80
2022/03/23 12:06:11;;;;;;;15.68;9.18;;;20.60;29.20;;;;;;5048493;28;20923;-79
2022/03/23 12:08:53;;;;;;;18.85;8.00;;;20.60;29.60;;;;;;5055788;28;20017;-79
2022/03/23 12:11:33;;;;;;;18.73;9.02;;;21.00;29.30;;;;;;5064578;28;20032;-80
2022/03/23 12:13:59;;;;;;;22.05;9.60;;;20.60;31.10;;;;;;5059460;28;20590;-79
2022/03/23 12:16:57;;;;;;;15.98;8.85;;;20.40;29.90;;;;;;5048204;28;20040;-79
2022/03/23 12:19:28;;;;;;;15.35;8.38;;;20.10;30.60;;;;;;5036629;28;20440;-80
2022/03/23 12:22:07;;;;;;;17.13;8.38;;;20.20;29.80;;;;;;5054468;28;20030;-80
2022/03/23 12:25:02;;;;;;;14.23;8.18;;;20.70;30.20;;;;;;5051874;28;20459;-80
2022/03/23 12:27:49;;;;;;;20.08;9.77;;;21.00;29.90;;;;;;5057111;28;20025;-80
2022/03/23 12:30:16;;;;;;;17.08;8.50;;;21.30;28.50;;;;;;5040572;28;20063;-80
2022/03/23 12:32:42;;;;;;;17.00;8.93;;;21.50;28.90;;;;;;5050047;28;20397;-80
2022/03/23 12:35:08;;;;;;;19.70;7.53;;;21.80;27.80;;;;;;5054241;28;20021;-80
2022/03/23 12:37:42;;;;;;;14.00;8.15;;;21.80;27.30;;;;;;5075929;28;20052;-81
2022/03/23 12:40:12;;;;;;;18.33;10.68;;;22.00;26.20;;;;;;5057400;28;20024;-81
2022/03/23 12:42:45;;;;;;;18.45;10.02;;;21.50;27.20;;;;;;5079667;28;20134;-80
2022/03/23 12:45:16;;;;;;;17.73;10.30;;;21.50;26.50;;;;;;5059342;28;20033;-81
2022/03/23 12:47:56;;;;;;;15.82;9.70;;;22.00;28.00;;;;;;5066972;28;20036;-81
2022/03/23 12:58:49;;;;;;;21.40;8.98;;;22.10;26.70;;;;;;5082382;28;20031;-81
2022/03/23 13:01:17;;;;;;;17.65;8.27;;;22.10;26.90;;;;;;5057156;28;20085;-81
2022/03/23 13:03:46;;;;;;;18.48;9.60;;;23.00;25.40;;;;;;5069715;28;20025;-81
2022/03/23 13:06:13;;;;;;;15.63;9.15;;;22.70;25.90;;;;;;5078192;28;20471;-81